createdAt,value
2018-03-19T00:00:12.730Z,82.88
2018-03-19T00:01:22.853Z,82.98
2018-03-19T00:02:32.646Z,82.31
2018-03-19T00:03:42.688Z,82.88
2018-03-19T00:04:52.487Z,82.79
2018-03-19T00:06:02.294Z,82.98
2018-03-19T00:07:12.148Z,82.79
2018-03-19T00:08:22.214Z,82.6
2018-03-19T00:09:32.003Z,82.69
2018-03-19T00:10:41.794Z,82.41
2018-03-19T00:11:51.607Z,82.79
2018-03-19T00:13:00.666Z,82.88
2018-03-19T00:14:10.449Z,82.69
2018-03-19T00:15:20.287Z,82.79
2018-03-19T00:16:29.822Z,82.79
2018-03-19T00:17:39.889Z,82.6
2018-03-19T00:18:50.010Z,82.88
2018-03-19T00:19:59.527Z,82.88
2018-03-19T00:21:09.078Z,82.79
2018-03-19T00:22:18.870Z,82.31
2018-03-19T00:23:28.923Z,82.5
2018-03-19T00:24:38.756Z,82.41
2018-03-19T00:25:48.824Z,82.22
2018-03-19T00:26:58.636Z,82.6
2018-03-19T00:28:08.464Z,82.22
2018-03-19T00:29:17.992Z,82.6
2018-03-19T00:30:27.627Z,82.5
2018-03-19T00:31:37.424Z,82.5
2018-03-19T00:32:46.945Z,82.5
2018-03-19T00:33:56.215Z,82.5
2018-03-19T00:35:06.274Z,82.6
2018-03-19T00:36:16.569Z,82.22
2018-03-19T00:37:26.649Z,82.5
2018-03-19T00:38:36.175Z,82.41
2018-03-19T00:39:46.225Z,82.69
2018-03-19T00:40:55.767Z,82.41
2018-03-19T00:42:05.080Z,82.22
2018-03-19T00:43:14.876Z,82.6
2018-03-19T00:44:24.965Z,82.41
2018-03-19T00:45:34.775Z,82.6
2018-03-19T00:46:44.832Z,82.6
2018-03-19T00:47:54.638Z,82.31
2018-03-19T00:49:04.685Z,82.5
2018-03-19T00:50:14.506Z,82.5
2018-03-19T00:51:24.299Z,82.5
2018-03-19T00:52:34.099Z,82.22
2018-03-19T00:53:43.426Z,82.6
2018-03-19T00:54:53.218Z,82.41
2018-03-19T00:56:02.740Z,82.31
2018-03-19T00:57:12.798Z,82.5
2018-03-19T00:58:22.850Z,82.41
2018-03-19T00:59:32.965Z,82.6
2018-03-19T01:00:43.018Z,82.69
2018-03-19T01:01:52.551Z,82.79
2018-03-19T01:03:02.356Z,82.41
2018-03-19T01:04:12.417Z,82.6
2018-03-19T01:05:22.658Z,82.6
2018-03-19T01:06:32.715Z,82.22
2018-03-19T01:07:42.771Z,82.79
2018-03-19T01:08:52.819Z,82.22
2018-03-19T01:10:02.347Z,82.5
2018-03-19T01:11:12.207Z,82.41
2018-03-19T01:12:22.276Z,82.5
2018-03-19T01:13:32.083Z,82.41
2018-03-19T01:14:42.145Z,82.5
2018-03-19T01:15:52.220Z,82.22
2018-03-19T01:17:02.258Z,82.69
2018-03-19T01:18:12.045Z,82.22
2018-03-19T01:19:21.643Z,82.31
2018-03-19T01:20:31.741Z,82.79
2018-03-19T01:21:41.821Z,82.31
2018-03-19T01:22:51.656Z,82.22
2018-03-19T01:24:01.451Z,82.6
2018-03-19T01:25:11.230Z,82.6
2018-03-19T01:26:20.776Z,82.79
2018-03-19T01:27:30.304Z,82.41
2018-03-19T01:28:40.165Z,82.41
2018-03-19T01:29:50.211Z,82.22
2018-03-19T01:30:59.746Z,82.69
2018-03-19T01:32:09.794Z,82.22
2018-03-19T01:33:19.584Z,82.41
2018-03-19T01:34:29.424Z,82.6
2018-03-19T01:35:39.487Z,82.6
2018-03-19T01:36:49.276Z,82.6
2018-03-19T01:37:59.334Z,82.41
2018-03-19T01:39:08.863Z,82.18
2018-03-19T01:40:18.414Z,82.75
2018-03-19T01:41:28.193Z,82.88
2018-03-19T01:42:38.240Z,82.6
2018-03-19T01:43:48.292Z,82.88
2018-03-19T01:44:58.099Z,82.31
2018-03-19T01:46:08.255Z,82.31
2018-03-19T01:47:18.326Z,82.56
2018-03-19T01:48:28.364Z,82.84
2018-03-19T01:49:37.887Z,82.84
2018-03-19T01:50:47.967Z,82.56
2018-03-19T01:51:58.024Z,82.46
2018-03-19T01:53:08.073Z,82.37
2018-03-19T01:54:17.890Z,82.37
2018-03-19T01:55:27.946Z,82.37
2018-03-19T01:56:37.746Z,82.56
2018-03-19T01:57:47.324Z,82.37
2018-03-19T01:58:57.104Z,82.28
2018-03-19T02:00:07.167Z,82.56
2018-03-19T02:01:17.227Z,82.28
2018-03-19T02:02:27.016Z,82.18
2018-03-19T02:03:36.802Z,82.65
2018-03-19T02:04:46.586Z,82.84
2018-03-19T02:05:56.646Z,82.69
2018-03-19T02:07:06.722Z,82.41
2018-03-19T02:08:16.768Z,82.6
2018-03-19T02:09:26.836Z,82.6
2018-03-19T02:10:36.893Z,82.6
2018-03-19T02:11:46.678Z,82.5
2018-03-19T02:12:56.765Z,82.22
2018-03-19T02:14:06.836Z,82.5
2018-03-19T02:15:16.890Z,82.5
2018-03-19T02:16:26.938Z,82.31
2018-03-19T02:17:36.999Z,82.41
2018-03-19T02:18:46.542Z,82.22
2018-03-19T02:19:56.326Z,82.22
2018-03-19T02:21:06.385Z,82.12
2018-03-19T02:22:16.181Z,82.6
2018-03-19T02:23:26.256Z,82.5
2018-03-19T02:24:36.058Z,82.22
2018-03-19T02:25:46.113Z,82.41
2018-03-19T02:26:55.943Z,82.22
2018-03-19T02:28:06.007Z,82.56
2018-03-19T02:29:16.041Z,82.22
2018-03-19T02:30:26.090Z,82.5
2018-03-19T02:31:36.155Z,82.69
2018-03-19T02:32:46.214Z,82.37
2018-03-19T02:33:56.374Z,82.56
2018-03-19T02:35:06.434Z,82.18
2018-03-19T02:36:15.987Z,82.56
2018-03-19T02:37:25.795Z,82.56
2018-03-19T02:38:35.912Z,82.22
2018-03-19T02:39:45.988Z,82.6
2018-03-19T02:40:56.041Z,82.6
2018-03-19T02:42:06.100Z,82.12
2018-03-19T02:43:16.161Z,82.69
2018-03-19T02:44:26.019Z,82.03
2018-03-19T02:45:36.141Z,81.84
2018-03-19T02:46:45.971Z,81.84
2018-03-19T02:47:56.044Z,82.69
2018-03-19T02:49:05.359Z,82.41
2018-03-19T02:50:15.159Z,82.6
2018-03-19T02:51:25.220Z,82.41
2018-03-19T02:52:35.297Z,82.41
2018-03-19T02:53:45.373Z,82.6
2018-03-19T02:54:54.901Z,81.84
2018-03-19T02:56:04.858Z,82.69
2018-03-19T02:57:14.655Z,82.5
2018-03-19T02:58:24.574Z,82.12
2018-03-19T02:59:33.577Z,82.5
2018-03-19T03:00:43.357Z,82.6
2018-03-19T03:01:53.198Z,82.6
2018-03-19T03:03:03.252Z,82.56
2018-03-19T03:04:12.509Z,82.56
2018-03-19T03:05:22.296Z,82.56
2018-03-19T03:06:31.846Z,82.56
2018-03-19T03:07:41.649Z,82.22
2018-03-19T03:39:40.438Z,77.75
2018-03-19T03:40:50.477Z,78.04
2018-03-19T03:42:00.550Z,79.08
2018-03-19T03:43:10.390Z,80.02
2018-03-19T03:44:19.629Z,81.24
2018-03-19T03:45:29.725Z,81.24
2018-03-19T03:46:39.521Z,81.91
2018-03-19T03:47:49.568Z,82.57
2018-03-19T03:48:59.345Z,82.47
2018-03-19T03:50:09.138Z,83.17
2018-03-19T03:51:19.009Z,83.46
2018-03-19T03:52:28.806Z,83.17
2018-03-19T03:53:38.609Z,83.17
2018-03-19T03:54:48.669Z,83.27
2018-03-19T03:55:58.716Z,83.36
2018-03-19T03:57:08.880Z,83.65
2018-03-19T03:58:18.929Z,83.36
2018-03-19T03:59:28.981Z,83.17
2018-03-19T04:00:38.524Z,82.84
2018-03-19T04:01:48.583Z,82.84
2018-03-19T04:02:58.434Z,83.03
2018-03-19T04:04:08.227Z,82.65
2018-03-19T04:05:18.285Z,82.84
2018-03-19T04:06:28.344Z,82.46
2018-03-19T04:07:38.125Z,82.46
2018-03-19T04:08:48.249Z,82.84
2018-03-19T04:09:58.289Z,82.46
2018-03-19T04:11:08.344Z,82.56
2018-03-19T04:12:18.395Z,82.75
2018-03-19T04:13:28.449Z,82.65
2018-03-19T04:14:38.227Z,82.65
2018-03-19T04:15:48.019Z,83.12
2018-03-19T04:16:57.812Z,82.75
2018-03-19T04:18:07.616Z,82.75
2018-03-19T04:19:17.672Z,82.46
2018-03-19T04:20:27.259Z,82.75
2018-03-19T04:21:37.311Z,82.84
2018-03-19T04:22:47.361Z,82.84
2018-03-19T04:23:57.153Z,82.75
2018-03-19T04:25:07.223Z,82.75
2018-03-19T04:26:17.033Z,82.46
2018-03-19T04:27:27.081Z,82.84
2018-03-19T04:28:37.141Z,82.37
2018-03-19T04:29:47.211Z,82.65
2018-03-19T04:30:57.028Z,82.56
2018-03-19T04:32:06.862Z,82.84
2018-03-19T04:33:16.114Z,82.75
2018-03-19T04:34:25.680Z,82.93
2018-03-19T04:35:35.746Z,82.28
2018-03-19T04:36:45.540Z,82.37
2018-03-19T04:37:55.090Z,82.56
2018-03-19T04:39:05.242Z,82.56
2018-03-19T04:40:15.030Z,82.37
2018-03-19T04:41:25.080Z,82.18
2018-03-19T04:42:34.866Z,82.75
2018-03-19T04:43:44.914Z,82.75
2018-03-19T04:44:54.723Z,82.46
2018-03-19T04:46:04.809Z,82.46
2018-03-19T04:47:14.866Z,82.37
2018-03-19T04:48:24.922Z,82.18
2018-03-19T04:49:34.997Z,82.09
2018-03-19T04:50:44.805Z,82.37
2018-03-19T04:51:54.334Z,82.37
2018-03-19T04:53:04.129Z,82.56
2018-03-19T04:54:14.179Z,82.46
2018-03-19T04:55:24.235Z,82.18
2018-03-19T04:56:34.301Z,82.28
2018-03-19T04:57:44.095Z,82.65
2018-03-19T04:58:53.993Z,82.46
2018-03-19T05:00:03.792Z,82.56
2018-03-19T05:01:13.627Z,82.37
2018-03-19T05:02:23.686Z,82.28
2018-03-19T05:03:33.732Z,82.46
2018-03-19T05:04:43.780Z,82.46
2018-03-19T05:05:53.866Z,82.37
2018-03-19T05:07:03.961Z,82.37
2018-03-19T05:08:13.735Z,82.37
2018-03-19T05:09:23.537Z,82.56
2018-03-19T05:10:33.589Z,82.56
2018-03-19T05:11:43.402Z,82.18
2018-03-19T05:12:53.502Z,82.37
2018-03-19T05:14:03.301Z,82.56
2018-03-19T05:15:13.357Z,82.56
2018-03-19T05:16:22.894Z,82.56
2018-03-19T05:17:32.937Z,81.99
2018-03-19T05:18:42.856Z,82.18
2018-03-19T05:19:52.887Z,81.99
2018-03-19T05:21:02.676Z,82.18
2018-03-19T05:22:12.721Z,82.18
2018-03-19T05:23:22.532Z,82.18
2018-03-19T05:24:31.840Z,81.9
2018-03-19T05:25:41.893Z,82.18
2018-03-19T05:26:51.695Z,81.71
2018-03-19T05:28:01.486Z,82.37
2018-03-19T05:29:11.263Z,81.71
2018-03-19T05:30:21.309Z,81.8
2018-03-19T05:31:31.113Z,82.37
2018-03-19T05:32:40.901Z,81.71
2018-03-19T05:33:50.426Z,81.52
2018-03-19T05:35:00.216Z,81.71
2018-03-19T05:36:10.330Z,81.8
2018-03-19T05:37:20.126Z,82.09
2018-03-19T05:38:30.194Z,82.09
2018-03-19T05:39:40.349Z,82.18
2018-03-19T05:40:50.391Z,81.9
2018-03-19T05:42:00.197Z,81.33
2018-03-19T05:43:10.243Z,81.52
2018-03-19T05:44:19.788Z,81.42
2018-03-19T05:45:29.836Z,81.61
2018-03-19T05:46:39.943Z,81.61
2018-03-19T05:47:50.022Z,81.46
2018-03-19T05:49:00.084Z,81.46
2018-03-19T05:50:10.194Z,81.71
2018-03-19T05:51:19.732Z,81.8
2018-03-19T05:52:29.568Z,81.74
2018-03-19T05:53:39.673Z,81.93
2018-03-19T05:54:49.743Z,81.37
2018-03-19T05:55:59.539Z,81.27
2018-03-19T05:57:09.397Z,81.74
2018-03-19T05:58:19.180Z,81.37
2018-03-19T05:59:29.083Z,81.65
2018-03-19T06:00:39.155Z,81.27
2018-03-19T06:01:49.216Z,82.03
2018-03-19T06:02:59.007Z,81.74
2018-03-19T06:04:09.067Z,81.27
2018-03-19T06:05:19.117Z,81.65
2018-03-19T06:06:29.199Z,81.46
2018-03-19T06:07:39.245Z,81.65
2018-03-19T06:08:49.039Z,81.41
2018-03-19T06:09:58.570Z,81.41
2018-03-19T06:11:08.112Z,81.41
2018-03-19T06:12:18.158Z,81.41
2018-03-19T06:13:28.227Z,81.41
2018-03-19T06:14:38.034Z,81.13
2018-03-19T06:15:47.580Z,81.03
2018-03-19T06:16:57.641Z,81.22
2018-03-19T06:18:07.425Z,81.32
2018-03-19T06:19:17.475Z,81.13
2018-03-19T06:20:27.527Z,81.7
2018-03-19T06:21:37.336Z,81.32
2018-03-19T06:22:47.138Z,81.7
2018-03-19T06:23:57.192Z,81.7
2018-03-19T06:25:06.991Z,81.7
2018-03-19T06:26:17.056Z,81.79
2018-03-19T06:27:27.240Z,81.6
2018-03-19T06:28:36.785Z,81.41
2018-03-19T06:29:46.837Z,81.51
2018-03-19T06:30:56.356Z,81.22
2018-03-19T06:32:06.421Z,81.51
2018-03-19T06:33:16.524Z,81.32
2018-03-19T06:34:26.575Z,81.03
2018-03-19T06:35:36.111Z,81.22
2018-03-19T06:36:46.164Z,81.32
2018-03-19T06:37:56.224Z,81.22
2018-03-19T06:39:06.080Z,81.41
2018-03-19T06:40:16.194Z,81.7
2018-03-19T06:41:25.999Z,81.79
2018-03-19T06:42:36.072Z,81.7
2018-03-19T06:43:46.143Z,81.98
2018-03-19T06:44:56.215Z,81.88
2018-03-19T06:46:06.300Z,81.88
2018-03-19T06:47:16.433Z,81.79
2018-03-19T06:48:26.160Z,81.93
2018-03-19T06:49:35.944Z,81.55
2018-03-19T06:50:45.980Z,81.45
2018-03-19T06:51:56.043Z,81.64
2018-03-19T06:53:06.099Z,81.17
2018-03-19T06:54:16.176Z,81.26
2018-03-19T06:55:26.240Z,81.64
2018-03-19T06:56:36.171Z,81.45
2018-03-19T06:57:46.217Z,81.74
2018-03-19T06:58:56.001Z,81.45
2018-03-19T07:00:05.528Z,81.74
2018-03-19T07:01:15.584Z,81.36
2018-03-19T07:02:25.378Z,81.55
2018-03-19T07:03:35.219Z,81.45
2018-03-19T07:04:45.282Z,81.36
2018-03-19T07:05:55.340Z,81.07
2018-03-19T07:07:05.397Z,81.17
2018-03-19T07:08:15.240Z,81.36
2018-03-19T07:09:25.042Z,81.26
2018-03-19T07:10:34.880Z,81.17
2018-03-19T07:11:44.412Z,80.51
2018-03-19T07:12:53.968Z,80.98
2018-03-19T07:14:04.012Z,80.88
2018-03-19T07:15:14.088Z,80.88
2018-03-19T07:16:23.630Z,80.93
2018-03-19T07:17:33.166Z,81.12
2018-03-19T07:18:42.969Z,80.83
2018-03-19T07:19:53.027Z,80.64
2018-03-19T07:21:03.082Z,80.55
2018-03-19T07:22:13.141Z,81.21
2018-03-19T07:23:23.207Z,80.93
2018-03-19T07:24:33.269Z,80.83
2018-03-19T07:25:43.492Z,80.93
2018-03-19T07:26:53.554Z,80.68
2018-03-19T07:28:03.352Z,80.87
2018-03-19T07:29:13.401Z,80.21
2018-03-19T07:30:23.462Z,80.87
2018-03-19T07:31:33.553Z,80.49
2018-03-19T07:32:43.605Z,80.96
2018-03-19T07:33:53.418Z,80.49
2018-03-19T07:35:03.605Z,80.49
2018-03-19T07:36:13.683Z,80.68
2018-03-19T07:37:23.889Z,80.77
2018-03-19T07:38:34.186Z,80.4
2018-03-19T07:39:44.405Z,80.91
2018-03-19T07:40:54.673Z,80.91
2018-03-19T07:42:05.077Z,80.68
2018-03-19T07:43:15.387Z,80.82
2018-03-19T07:44:25.270Z,80.63
2018-03-19T07:45:35.151Z,80.44
2018-03-19T07:46:44.941Z,80.53
2018-03-19T07:47:54.997Z,80.34
2018-03-19T07:49:04.853Z,80.63
2018-03-19T07:50:14.917Z,80.15
2018-03-19T07:51:24.555Z,80.15
2018-03-19T07:52:34.363Z,80.91
2018-03-19T07:53:44.184Z,80.63
2018-03-19T07:54:54.239Z,80.34
2018-03-19T07:56:04.091Z,80.25
2018-03-19T07:57:13.962Z,80.63
2018-03-19T07:58:24.099Z,80.53
2018-03-19T07:59:33.642Z,80.63
2018-03-19T08:00:43.450Z,80.63
2018-03-19T08:01:52.994Z,80.53
2018-03-19T08:03:03.048Z,80.53
2018-03-19T08:04:13.107Z,80.44
2018-03-19T08:05:22.661Z,80.53
2018-03-19T08:06:32.468Z,80.25
2018-03-19T08:07:42.536Z,80.53
2018-03-19T08:08:52.338Z,80.82
2018-03-19T08:10:02.394Z,80.72
2018-03-19T08:11:12.441Z,81.1
2018-03-19T08:12:22.062Z,81.38
2018-03-19T08:13:31.966Z,81.67
2018-03-19T08:14:42.010Z,80.63
2018-03-19T08:15:52.058Z,81.29
2018-03-19T08:17:01.863Z,80.91
2018-03-19T08:18:11.668Z,81.01
2018-03-19T08:19:21.849Z,80.72
2018-03-19T08:20:31.653Z,80.63
2018-03-19T08:21:41.462Z,80.63
2018-03-19T08:22:51.716Z,81.01
2018-03-19T08:24:01.772Z,81.01
2018-03-19T08:25:11.572Z,80.72
2018-03-19T08:26:21.374Z,80.53
2018-03-19T08:27:30.957Z,80.25
2018-03-19T08:28:40.752Z,80.34
2018-03-19T08:29:50.786Z,80.34
2018-03-19T08:31:00.875Z,80.63
2018-03-19T08:32:10.402Z,81.01
2018-03-19T08:33:20.236Z,80.53
2018-03-19T08:34:30.302Z,80.15
2018-03-19T08:35:40.121Z,80.44
2018-03-19T08:36:50.190Z,80.82
2018-03-19T08:37:59.714Z,80.63
2018-03-19T08:39:09.814Z,80.67
2018-03-19T08:40:19.892Z,80.29
2018-03-19T08:41:29.826Z,80.1
2018-03-19T08:42:39.374Z,80.19
2018-03-19T08:43:49.174Z,80.1
2018-03-19T08:44:59.248Z,80.38
2018-03-19T08:46:09.325Z,80.76
2018-03-19T08:47:18.849Z,80.38
2018-03-19T08:48:28.641Z,80.48
2018-03-19T08:49:38.533Z,80.57
2018-03-19T08:50:48.380Z,80.48
2018-03-19T08:51:58.458Z,80.57
2018-03-19T08:53:08.253Z,80.48
2018-03-19T08:54:18.337Z,80.1
2018-03-19T08:55:27.868Z,80.14
2018-03-19T08:56:37.999Z,79.47
2018-03-19T08:57:48.081Z,79.66
2018-03-19T08:58:57.620Z,79.85
2018-03-19T09:00:07.729Z,79.76
2018-03-19T09:01:17.795Z,80
2018-03-19T09:02:27.604Z,81.05
2018-03-19T09:03:37.418Z,80.19
2018-03-19T09:04:47.492Z,80.86
2018-03-19T09:05:57.300Z,81.14
2018-03-19T09:07:07.107Z,80.95
2018-03-19T09:08:17.086Z,81.43
2018-03-19T09:09:27.177Z,81.14
2018-03-19T09:10:37.257Z,80.86
2018-03-19T09:11:47.402Z,80.57
2018-03-19T09:12:57.515Z,80.95
2018-03-19T09:14:06.853Z,80.95
2018-03-19T09:15:16.915Z,80.67
2018-03-19T09:16:26.448Z,80.29
2018-03-19T09:17:36.253Z,80.04
2018-03-19T09:18:46.078Z,80.04
2018-03-19T09:19:56.272Z,80.04
2018-03-19T09:21:06.084Z,80.04
2018-03-19T09:22:15.880Z,80.14
2018-03-19T09:23:26.009Z,80.14
2018-03-19T09:24:35.821Z,80.14
2018-03-19T09:25:45.933Z,80.62
2018-03-19T09:26:55.465Z,80.33
2018-03-19T09:28:05.543Z,80.14
2018-03-19T09:29:15.356Z,79.95
2018-03-19T09:30:25.410Z,79.66
2018-03-19T09:31:34.677Z,79.47
2018-03-19T09:32:44.255Z,79.61
2018-03-19T09:33:54.345Z,79.33
2018-03-19T09:35:04.207Z,79.52
2018-03-19T09:36:14.240Z,79.14
2018-03-19T09:37:24.286Z,79.04
2018-03-19T09:38:33.825Z,79.14
2018-03-19T09:39:43.620Z,79.33
2018-03-19T09:40:53.708Z,79.42
2018-03-19T09:42:03.257Z,79.33
2018-03-19T09:43:13.102Z,79.04
2018-03-19T09:44:22.883Z,78.89
2018-03-19T09:45:32.954Z,78.8
2018-03-19T09:46:42.761Z,78.89
2018-03-19T09:47:52.825Z,78.99
2018-03-19T09:49:02.373Z,79.08
2018-03-19T09:50:12.431Z,79.08
2018-03-19T09:51:22.229Z,78.8
2018-03-19T09:52:32.296Z,78.64
2018-03-19T09:53:42.102Z,78.45
2018-03-19T09:54:52.187Z,78.36
2018-03-19T09:56:02.022Z,78.93
2018-03-19T09:57:12.085Z,79.03
2018-03-19T09:58:21.885Z,79.03
2018-03-19T09:59:31.719Z,78.93
2018-03-19T10:00:41.535Z,79.03
2018-03-19T10:01:51.383Z,78.69
2018-03-19T10:03:01.189Z,78.02
2018-03-19T10:04:10.464Z,77.92
2018-03-19T10:05:20.523Z,78.11
2018-03-19T10:06:30.316Z,78.59
2018-03-19T10:07:40.096Z,79.06
2018-03-19T10:08:50.207Z,79.12
2018-03-19T10:10:00.280Z,79.6
2018-03-19T10:11:10.365Z,79.88
2018-03-19T10:12:19.640Z,79.69
2018-03-19T10:13:29.802Z,79.6
2018-03-19T10:14:39.893Z,79.69
2018-03-19T10:15:49.963Z,79.69
2018-03-19T10:16:59.761Z,79.88
2018-03-19T10:18:09.830Z,79.79
2018-03-19T10:19:19.429Z,79.22
2018-03-19T10:20:28.989Z,79.69
2018-03-19T10:21:39.117Z,79.6
2018-03-19T10:22:48.720Z,79.69
2018-03-19T10:23:58.255Z,79.88
2018-03-19T10:25:07.526Z,79.69
2018-03-19T10:26:17.574Z,79.69
2018-03-19T10:27:27.644Z,79.79
2018-03-19T10:28:37.812Z,79.41
2018-03-19T10:29:47.883Z,79.6
2018-03-19T10:30:57.733Z,79.79
2018-03-19T10:32:07.799Z,79.69
2018-03-19T10:33:17.603Z,79.79
2018-03-19T10:34:27.709Z,79.6
2018-03-19T10:35:37.519Z,79.6
2018-03-19T10:36:47.576Z,79.6
2018-03-19T10:37:57.385Z,79.6
2018-03-19T10:39:07.176Z,79.6
2018-03-19T10:40:16.992Z,79.54
2018-03-19T10:41:27.077Z,79.54
2018-03-19T10:42:37.187Z,79.44
2018-03-19T10:43:47.253Z,79.06
2018-03-19T10:44:57.309Z,79.06
2018-03-19T10:46:07.100Z,78.78
2018-03-19T10:47:16.922Z,78.88
2018-03-19T10:48:27.037Z,78.97
2018-03-19T10:49:37.090Z,78.88
2018-03-19T10:50:47.155Z,78.97
2018-03-19T10:51:56.960Z,78.88
2018-03-19T10:53:07.026Z,79.3
2018-03-19T10:54:17.137Z,79.11
2018-03-19T10:55:27.215Z,78.91
2018-03-19T10:56:37.265Z,78.34
2018-03-19T10:57:47.358Z,78.91
2018-03-19T10:58:57.146Z,78.82
2018-03-19T11:00:06.960Z,79.58
2018-03-19T11:01:16.817Z,79.58
2018-03-19T11:02:27.009Z,80.15
2018-03-19T11:03:36.808Z,79.73
2018-03-19T11:04:46.638Z,80.3
2018-03-19T11:05:56.477Z,80.02
2018-03-19T11:07:06.272Z,80.87
2018-03-19T11:08:16.079Z,80.87
2018-03-19T11:09:25.927Z,81.3
2018-03-19T11:10:36.026Z,81.12
2018-03-19T11:11:46.150Z,81.12
2018-03-19T11:12:56.089Z,81.45
2018-03-19T11:14:06.177Z,81.21
2018-03-19T11:15:16.261Z,81.36
2018-03-19T11:16:26.347Z,81.36
2018-03-19T11:17:36.452Z,81.45
2018-03-19T11:18:46.253Z,81.45
2018-03-19T11:19:56.319Z,81.36
2018-03-19T11:21:06.528Z,81.17
2018-03-19T11:22:16.600Z,80.98
2018-03-19T11:23:26.686Z,80.6
2018-03-19T11:24:36.746Z,80.79
2018-03-19T11:25:46.544Z,80.69
2018-03-19T11:26:56.110Z,80.32
2018-03-19T11:28:06.170Z,80.79
2018-03-19T11:29:15.989Z,80.32
2018-03-19T11:30:25.647Z,80.41
2018-03-19T11:31:35.443Z,80.51
2018-03-19T11:32:45.503Z,80.55
2018-03-19T11:33:55.552Z,80.26
2018-03-19T11:35:05.671Z,79.97
2018-03-19T11:36:15.467Z,79.69
2018-03-19T11:37:25.278Z,79.41
2018-03-19T11:38:35.325Z,79.79
2018-03-19T11:39:45.135Z,79.69
2018-03-19T11:40:54.949Z,80.26
2018-03-19T11:42:04.797Z,80.07
2018-03-19T11:43:14.866Z,80.26
2018-03-19T11:44:24.393Z,79.97
2018-03-19T11:45:34.441Z,80.83
2018-03-19T11:46:44.248Z,80.93
2018-03-19T11:47:54.039Z,81.02
2018-03-19T11:49:03.869Z,81.07
2018-03-19T11:50:13.926Z,80.45
2018-03-19T11:51:24.000Z,80.88
2018-03-19T11:52:33.794Z,80.41
2018-03-19T11:53:43.859Z,80.88
2018-03-19T11:54:53.940Z,80.98
2018-03-19T11:56:03.482Z,80.69
2018-03-19T11:57:13.551Z,80.32
2018-03-19T11:58:23.359Z,80.6
2018-03-19T11:59:33.431Z,80.6
2018-03-19T12:00:42.686Z,80.69
2018-03-19T12:01:52.754Z,80.69
2018-03-19T12:03:02.550Z,80.69
2018-03-19T12:04:12.361Z,80.79
2018-03-19T12:05:22.429Z,80.6
2018-03-19T12:06:31.698Z,80.41
2018-03-19T12:07:41.774Z,80.88
2018-03-19T12:08:51.291Z,80.79
2018-03-19T12:10:01.091Z,80.6
2018-03-19T12:11:10.617Z,80.13
2018-03-19T12:12:20.502Z,80.13
2018-03-19T12:13:30.402Z,80.22
2018-03-19T12:14:40.476Z,80.32
2018-03-19T12:15:50.026Z,80.22
2018-03-19T12:16:59.606Z,80.16
2018-03-19T12:18:09.676Z,79.69
2018-03-19T12:19:19.499Z,79.6
2018-03-19T12:20:29.307Z,80.26
2018-03-19T12:21:39.435Z,80.26
2018-03-19T12:22:49.243Z,80.22
2018-03-19T12:23:59.052Z,80.69
2018-03-19T12:25:09.103Z,81.17
2018-03-19T12:26:18.896Z,80.69
2018-03-19T12:27:29.020Z,81.07
2018-03-19T12:28:39.071Z,81.07
2018-03-19T12:29:48.614Z,80.88
2018-03-19T12:30:58.409Z,80.51
2018-03-19T12:32:08.470Z,80.41
2018-03-19T12:33:18.316Z,80.69
2018-03-19T12:34:28.398Z,79.94
2018-03-19T12:35:38.219Z,80.22
2018-03-19T12:36:48.006Z,80.13
2018-03-19T12:37:57.818Z,80.03
2018-03-19T12:39:07.611Z,80.41
2018-03-19T12:40:17.154Z,81.07
2018-03-19T12:41:26.674Z,80.65
2018-03-19T12:42:36.718Z,81.23
2018-03-19T12:43:46.787Z,81.32
2018-03-19T12:44:56.575Z,81.23
2018-03-19T12:46:06.105Z,80.84
2018-03-19T12:47:16.153Z,80.84
2018-03-19T12:48:26.213Z,80.75
2018-03-19T12:49:36.276Z,80.75
2018-03-19T12:50:46.081Z,80.94
2018-03-19T12:51:56.179Z,80.75
2018-03-19T12:53:05.722Z,81.41
2018-03-19T12:54:15.546Z,81.79
2018-03-19T12:55:25.369Z,81.51
2018-03-19T12:56:34.987Z,81.41
2018-03-19T12:57:44.522Z,81.51
2018-03-19T12:58:54.065Z,80.94
2018-03-19T13:00:04.121Z,81.04
2018-03-19T13:01:14.227Z,81.13
2018-03-19T13:02:24.044Z,80.94
2018-03-19T13:03:33.625Z,81.23
2018-03-19T13:04:43.433Z,80.75
2018-03-19T13:05:53.496Z,81.09
2018-03-19T13:07:03.349Z,80.9
2018-03-19T13:08:13.481Z,80.99
2018-03-19T13:09:23.566Z,80.8
2018-03-19T13:10:33.363Z,81.27
2018-03-19T13:11:43.431Z,81.47
2018-03-19T13:12:53.550Z,81.85
2018-03-19T13:14:03.194Z,81.51
2018-03-19T13:15:13.271Z,81.6
2018-03-19T13:16:23.346Z,81.13
2018-03-19T13:17:32.892Z,80.84
2018-03-19T13:18:42.966Z,81.6
2018-03-19T13:19:52.495Z,81.27
2018-03-19T13:21:02.569Z,81.66
2018-03-19T13:22:12.380Z,81.56
2018-03-19T13:23:22.181Z,81.66
2018-03-19T13:24:32.313Z,81.94
2018-03-19T13:25:42.609Z,81.94
2018-03-19T13:26:52.424Z,82.13
2018-03-19T13:28:02.487Z,81.85
2018-03-19T13:29:12.285Z,81.94
2018-03-19T13:30:21.812Z,81.56
2018-03-19T13:31:31.654Z,82.04
2018-03-19T13:32:41.217Z,82.13
2018-03-19T13:33:51.016Z,81.27
2018-03-19T13:35:00.808Z,81.47
2018-03-19T13:36:10.609Z,81.27
2018-03-19T13:37:20.444Z,81.37
2018-03-19T13:38:30.238Z,81.27
2018-03-19T13:39:40.299Z,81.66
2018-03-19T13:40:50.384Z,81.94
2018-03-19T13:42:00.450Z,81.09
2018-03-19T13:43:10.266Z,81.85
2018-03-19T13:44:20.320Z,81.75
2018-03-19T13:45:30.415Z,81.56
2018-03-19T13:46:39.958Z,81.56
2018-03-19T13:47:50.016Z,81.75
2018-03-19T13:49:00.102Z,81.47
2018-03-19T13:50:10.181Z,81.56
2018-03-19T13:51:19.973Z,81.27
2018-03-19T13:52:30.075Z,81.56
2018-03-19T13:53:39.918Z,81.18
2018-03-19T13:54:50.171Z,81.56
2018-03-19T13:56:00.257Z,80.71
2018-03-19T13:57:10.054Z,81.56
2018-03-19T13:58:19.587Z,80.9
2018-03-19T13:59:29.651Z,80.71
2018-03-19T14:00:39.238Z,80.8
2018-03-19T14:01:49.306Z,81.75
2018-03-19T14:02:59.105Z,81.47
2018-03-19T14:04:08.910Z,81.56
2018-03-19T14:05:18.990Z,81.37
2018-03-19T14:06:29.073Z,81.56
2018-03-19T14:07:39.155Z,81.66
2018-03-19T14:08:49.232Z,81.66
2018-03-19T14:09:58.767Z,81.56
2018-03-19T14:11:08.849Z,81.85
2018-03-19T14:12:18.670Z,81.85
2018-03-19T14:13:28.541Z,81.81
2018-03-19T14:14:37.551Z,81.9
2018-03-19T14:15:47.354Z,82.18
2018-03-19T14:16:57.211Z,82.28
2018-03-19T14:18:07.605Z,81.99
2018-03-19T14:19:17.392Z,82.09
2018-03-19T14:20:27.460Z,81.9
2018-03-19T14:21:37.630Z,81.81
2018-03-19T14:22:47.461Z,81.71
2018-03-19T14:23:57.254Z,81.9
2018-03-19T14:25:07.320Z,81.67
2018-03-19T14:26:17.382Z,82.24
2018-03-19T14:27:27.213Z,81.86
2018-03-19T14:28:37.596Z,81.95
2018-03-19T14:29:47.671Z,82.14
2018-03-19T14:30:57.494Z,81.67
2018-03-19T14:32:07.326Z,82.24
2018-03-19T14:33:17.135Z,81.67
2018-03-19T14:34:27.192Z,81.67
2018-03-19T14:35:37.249Z,81.57
2018-03-19T14:36:46.532Z,82.14
2018-03-19T14:37:56.595Z,81.86
2018-03-19T14:39:06.655Z,81.67
2018-03-19T14:40:16.468Z,81.67
2018-03-19T14:41:26.534Z,81.48
2018-03-19T14:42:36.083Z,82.05
2018-03-19T14:43:46.179Z,81.95
2018-03-19T14:44:56.241Z,82.05
2018-03-19T14:46:06.028Z,81.95
2018-03-19T14:47:15.823Z,81.86
2018-03-19T14:48:25.957Z,81.67
2018-03-19T14:49:36.031Z,81.57
2018-03-19T14:50:46.161Z,81.76
2018-03-19T14:51:55.550Z,82.24
2018-03-19T14:53:05.360Z,82.43
2018-03-19T14:54:15.149Z,82.14
2018-03-19T14:55:24.678Z,82.33
2018-03-19T14:56:34.553Z,82.24
2018-03-19T14:57:44.099Z,82.05
2018-03-19T14:58:53.922Z,82.24
2018-03-19T15:00:03.754Z,82.9
2018-03-19T15:01:13.586Z,82.24
2018-03-19T15:02:23.650Z,82.62
2018-03-19T15:03:33.446Z,82.43
2018-03-19T15:04:42.972Z,82.33
2018-03-19T15:05:52.514Z,82.81
2018-03-19T15:07:02.638Z,82.81
2018-03-19T15:08:12.443Z,82.9
2018-03-19T15:09:22.242Z,82.62
2018-03-19T15:10:32.075Z,82.52
2018-03-19T15:11:42.153Z,82.62
2018-03-19T15:12:51.938Z,82.81
2018-03-19T15:14:01.493Z,82.39
2018-03-19T15:15:11.575Z,82.39
2018-03-19T15:16:21.454Z,82.39
2018-03-19T15:17:30.985Z,82.57
2018-03-19T15:18:41.031Z,82.9
2018-03-19T15:19:50.849Z,82.01
2018-03-19T15:21:00.939Z,82.95
2018-03-19T15:22:11.012Z,82.67
2018-03-19T15:23:20.800Z,82.86
2018-03-19T15:24:30.962Z,82.86
2018-03-19T15:25:41.030Z,82.57
2018-03-19T15:26:50.843Z,82.76
2018-03-19T15:28:00.630Z,82.67
2018-03-19T15:29:10.419Z,82.57
2018-03-19T15:30:21.289Z,82.57
2018-03-19T15:31:31.404Z,82.57
2018-03-19T15:32:41.348Z,82.95
2018-03-19T15:33:52.855Z,82.95